FAQR weather

CLOSED Potgietersrus Airport
Potgietersus, Limpopo, South Africa

Public forecast

Using degrees Celsius for public forecast. Weather courtesy of forecast.io.

METAR (pilot weather report)

Closest report is Polokwane International Airport, 35.0 nm (64.7 km) NE. Retrieved 2019/05/26 10:00 UTC (56 minutes ago):

FAPP 261000Z 27002KT 9999 FEW025 20/06 Q1026 NOSIG

TAF (pilot weather forecast)

Forecast is more than 12 hours old.

Closest forecast is Polokwane International Airport, 35.0 nm (64.7 km) NE. Retrieved 2017/06/05 04:55 UTC (2 years ago):

TAF FAPP 050300Z 0504/0515 16005KT CAVOK BECMG 0508/0510 06008KT TX21/0513ZTN08/0504Z